Flight NumberIPW0112 Date13.01.2019
Departure AirportOIIE Arrival AirportEGLL
Departure Time17.37Arrival Time23.33
Pilot In Commandreza sajadi Block Time5.90 Hours
Pilot Rating100 % AircraftEP-VLS [ 747-400 ]


Distance2,391.00 Nm. Passengers480
Fuel Used57,339 Kg. Cargo18358 Kg
Expense Details Income Details
Fuel Cost41,000 v$Ticket Sales288,000 v$
Pilot Salary63,903 v$ Cargo income33,611.00 v$
Crew Salary2,400 v$ Bonus71,003 v$
Gross Profit362,118 v$ ( 9,052,950 v$ )

Client Versionv2.2.1 Plugin Max Simrate1
Flight Critique Pilot CommentsEGLL 122320Z AUTO 28012KT 9999 NCD 10/07 Q1019 NOSIG